sensor_id;sensor_type;location;lat;lon;timestamp;temperature;humidity
35381;DHT22;21486;51.916;8.378;2023-02-26T00:02:16;-0.60;95.30
35381;DHT22;21486;51.916;8.378;2023-02-26T00:04:41;-0.50;94.90
35381;DHT22;21486;51.916;8.378;2023-02-26T00:07:07;-0.40;94.40
35381;DHT22;21486;51.916;8.378;2023-02-26T00:09:32;-0.40;94.20
35381;DHT22;21486;51.916;8.378;2023-02-26T00:11:58;-0.40;94.30
35381;DHT22;21486;51.916;8.378;2023-02-26T00:14:24;-0.40;94.10
35381;DHT22;21486;51.916;8.378;2023-02-26T00:16:53;-0.50;94.00
35381;DHT22;21486;51.916;8.378;2023-02-26T00:19:20;-0.50;94.20
35381;DHT22;21486;51.916;8.378;2023-02-26T00:21:46;-0.70;94.20
35381;DHT22;21486;51.916;8.378;2023-02-26T00:24:11;-0.80;94.70
35381;DHT22;21486;51.916;8.378;2023-02-26T00:26:37;-0.80;95.40
35381;DHT22;21486;51.916;8.378;2023-02-26T00:29:03;-0.90;95.10
35381;DHT22;21486;51.916;8.378;2023-02-26T00:31:28;-0.90;95.20
35381;DHT22;21486;51.916;8.378;2023-02-26T00:33:54;-0.90;95.20
35381;DHT22;21486;51.916;8.378;2023-02-26T00:36:22;-0.90;95.10
35381;DHT22;21486;51.916;8.378;2023-02-26T00:39:23;-1.00;95.10
35381;DHT22;21486;51.916;8.378;2023-02-26T00:41:39;-1.10;95.00
35381;DHT22;21486;51.916;8.378;2023-02-26T00:44:05;-1.10;95.40
35381;DHT22;21486;51.916;8.378;2023-02-26T00:49:02;-1.00;95.20
35381;DHT22;21486;51.916;8.378;2023-02-26T00:51:38;-0.70;94.50
35381;DHT22;21486;51.916;8.378;2023-02-26T00:54:23;-0.70;93.70
35381;DHT22;21486;51.916;8.378;2023-02-26T00:56:49;-0.70;93.70
35381;DHT22;21486;51.916;8.378;2023-02-26T00:59:15;-0.70;93.50
35381;DHT22;21486;51.916;8.378;2023-02-26T01:01:41;-0.70;93.20
35381;DHT22;21486;51.916;8.378;2023-02-26T01:04:06;-0.60;92.70
35381;DHT22;21486;51.916;8.378;2023-02-26T01:06:33;-0.60;92.60
35381;DHT22;21486;51.916;8.378;2023-02-26T01:09:01;-0.60;92.30
35381;DHT22;21486;51.916;8.378;2023-02-26T01:11:30;-0.70;92.40
35381;DHT22;21486;51.916;8.378;2023-02-26T01:13:56;-0.60;92.20
35381;DHT22;21486;51.916;8.378;2023-02-26T01:16:23;-0.60;91.90
35381;DHT22;21486;51.916;8.378;2023-02-26T01:18:52;-0.50;91.50
35381;DHT22;21486;51.916;8.378;2023-02-26T01:21:25;-0.60;91.70
35381;DHT22;21486;51.916;8.378;2023-02-26T01:23:51;-0.50;91.80
35381;DHT22;21486;51.916;8.378;2023-02-26T01:26:22;-0.50;91.10
35381;DHT22;21486;51.916;8.378;2023-02-26T01:28:48;-0.40;91.20
35381;DHT22;21486;51.916;8.378;2023-02-26T01:33:21;-0.50;91.00
35381;DHT22;21486;51.916;8.378;2023-02-26T01:35:53;-0.40;91.10
35381;DHT22;21486;51.916;8.378;2023-02-26T01:38:35;-0.30;91.00
35381;DHT22;21486;51.916;8.378;2023-02-26T01:41:35;-0.30;90.60
35381;DHT22;21486;51.916;8.378;2023-02-26T01:44:19;-0.20;90.20
35381;DHT22;21486;51.916;8.378;2023-02-26T01:47:02;0.00;89.50
35381;DHT22;21486;51.916;8.378;2023-02-26T01:49:29;0.00;88.70
35381;DHT22;21486;51.916;8.378;2023-02-26T01:51:57;-0.10;88.90
35381;DHT22;21486;51.916;8.378;2023-02-26T01:54:30;0.00;88.00
35381;DHT22;21486;51.916;8.378;2023-02-26T01:59:26;0.20;86.40
35381;DHT22;21486;51.916;8.378;2023-02-26T02:01:53;0.30;86.30
35381;DHT22;21486;51.916;8.378;2023-02-26T02:04:21;0.20;86.00
35381;DHT22;21486;51.916;8.378;2023-02-26T02:06:49;0.20;86.90
35381;DHT22;21486;51.916;8.378;2023-02-26T02:09:14;0.00;85.90
35381;DHT22;21486;51.916;8.378;2023-02-26T02:20:07;0.10;85.90
35381;DHT22;21486;51.916;8.378;2023-02-26T02:31:32;-0.20;85.30
35381;DHT22;21486;51.916;8.378;2023-02-26T02:34:07;-0.30;86.20
35381;DHT22;21486;51.916;8.378;2023-02-26T02:39:31;-0.40;87.10
35381;DHT22;21486;51.916;8.378;2023-02-26T02:42:05;-0.40;87.30
35381;DHT22;21486;51.916;8.378;2023-02-26T02:44:36;-0.40;87.40
35381;DHT22;21486;51.916;8.378;2023-02-26T02:47:04;-0.30;86.30
35381;DHT22;21486;51.916;8.378;2023-02-26T02:49:34;-0.40;86.50
35381;DHT22;21486;51.916;8.378;2023-02-26T02:54:39;-0.30;86.30
35381;DHT22;21486;51.916;8.378;2023-02-26T02:57:33;-0.30;86.30
35381;DHT22;21486;51.916;8.378;2023-02-26T03:00:04;-0.30;85.80
35381;DHT22;21486;51.916;8.378;2023-02-26T03:05:27;-0.30;86.40
35381;DHT22;21486;51.916;8.378;2023-02-26T03:07:56;-0.40;86.20
35381;DHT22;21486;51.916;8.378;2023-02-26T03:10:23;-0.40;86.10
35381;DHT22;21486;51.916;8.378;2023-02-26T03:12:49;-0.50;85.90
35381;DHT22;21486;51.916;8.378;2023-02-26T03:15:17;-0.50;85.80
35381;DHT22;21486;51.916;8.378;2023-02-26T03:17:54;-0.40;85.90
35381;DHT22;21486;51.916;8.378;2023-02-26T03:20:25;-0.40;86.90
35381;DHT22;21486;51.916;8.378;2023-02-26T03:23:10;-0.40;86.10
35381;DHT22;21486;51.916;8.378;2023-02-26T03:31:21;-0.50;86.00
35381;DHT22;21486;51.916;8.378;2023-02-26T03:34:02;-0.50;85.80
35381;DHT22;21486;51.916;8.378;2023-02-26T03:36:38;-0.40;86.10
35381;DHT22;21486;51.916;8.378;2023-02-26T03:39:26;-0.40;86.00
35381;DHT22;21486;51.916;8.378;2023-02-26T03:42:02;-0.40;85.80
35381;DHT22;21486;51.916;8.378;2023-02-26T03:44:33;-0.50;86.40
35381;DHT22;21486;51.916;8.378;2023-02-26T03:47:06;-0.60;86.40
35381;DHT22;21486;51.916;8.378;2023-02-26T03:49:37;-0.70;87.00
35381;DHT22;21486;51.916;8.378;2023-02-26T03:52:05;-0.70;86.80
35381;DHT22;21486;51.916;8.378;2023-02-26T03:54:34;-0.70;87.20
35381;DHT22;21486;51.916;8.378;2023-02-26T03:57:02;-0.60;87.00
35381;DHT22;21486;51.916;8.378;2023-02-26T03:59:27;-0.60;87.40
35381;DHT22;21486;51.916;8.378;2023-02-26T04:02:07;-0.60;86.80
35381;DHT22;21486;51.916;8.378;2023-02-26T04:04:51;-0.70;87.90
35381;DHT22;21486;51.916;8.378;2023-02-26T04:07:19;-0.80;88.10
35381;DHT22;21486;51.916;8.378;2023-02-26T04:09:46;-0.80;88.80
35381;DHT22;21486;51.916;8.378;2023-02-26T04:12:13;-0.80;87.90
35381;DHT22;21486;51.916;8.378;2023-02-26T04:14:38;-0.70;87.40
35381;DHT22;21486;51.916;8.378;2023-02-26T04:17:04;-0.90;88.20
35381;DHT22;21486;51.916;8.378;2023-02-26T04:19:30;-0.80;88.20
35381;DHT22;21486;51.916;8.378;2023-02-26T04:21:56;-0.70;87.40
35381;DHT22;21486;51.916;8.378;2023-02-26T04:24:22;-0.80;87.70
35381;DHT22;21486;51.916;8.378;2023-02-26T04:26:47;-0.90;87.80
35381;DHT22;21486;51.916;8.378;2023-02-26T04:29:13;-0.90;88.30
35381;DHT22;21486;51.916;8.378;2023-02-26T04:31:39;-1.00;88.50
35381;DHT22;21486;51.916;8.378;2023-02-26T04:34:04;-0.90;88.70
35381;DHT22;21486;51.916;8.378;2023-02-26T04:36:30;-1.00;88.60
35381;DHT22;21486;51.916;8.378;2023-02-26T04:38:56;-1.00;88.90
35381;DHT22;21486;51.916;8.378;2023-02-26T04:41:21;-1.00;89.10
35381;DHT22;21486;51.916;8.378;2023-02-26T04:43:47;-0.90;88.60
35381;DHT22;21486;51.916;8.378;2023-02-26T04:46:12;-0.90;88.10
35381;DHT22;21486;51.916;8.378;2023-02-26T04:48:38;-1.00;88.10
35381;DHT22;21486;51.916;8.378;2023-02-26T04:51:04;-1.10;88.50
35381;DHT22;21486;51.916;8.378;2023-02-26T04:53:29;-1.00;89.10
35381;DHT22;21486;51.916;8.378;2023-02-26T04:55:55;-1.10;88.80
35381;DHT22;21486;51.916;8.378;2023-02-26T04:58:20;-1.20;89.20
35381;DHT22;21486;51.916;8.378;2023-02-26T05:00:50;-1.10;89.70
35381;DHT22;21486;51.916;8.378;2023-02-26T05:03:17;-1.10;89.30
35381;DHT22;21486;51.916;8.378;2023-02-26T05:05:43;-1.10;89.70
35381;DHT22;21486;51.916;8.378;2023-02-26T05:08:08;-1.20;89.20
35381;DHT22;21486;51.916;8.378;2023-02-26T05:10:34;-1.20;90.00
35381;DHT22;21486;51.916;8.378;2023-02-26T05:13:00;-1.20;89.40
35381;DHT22;21486;51.916;8.378;2023-02-26T05:15:25;-1.20;89.80
35381;DHT22;21486;51.916;8.378;2023-02-26T05:17:51;-1.20;90.30
35381;DHT22;21486;51.916;8.378;2023-02-26T05:20:17;-1.20;90.00
35381;DHT22;21486;51.916;8.378;2023-02-26T05:22:42;-1.30;90.30
35381;DHT22;21486;51.916;8.378;2023-02-26T05:25:09;-1.40;90.40
35381;DHT22;21486;51.916;8.378;2023-02-26T05:27:36;-1.30;90.70
35381;DHT22;21486;51.916;8.378;2023-02-26T05:30:02;-1.30;90.70
35381;DHT22;21486;51.916;8.378;2023-02-26T05:32:27;-1.30;90.30
35381;DHT22;21486;51.916;8.378;2023-02-26T05:34:53;-1.20;90.30
35381;DHT22;21486;51.916;8.378;2023-02-26T05:37:18;-1.30;90.60
35381;DHT22;21486;51.916;8.378;2023-02-26T05:39:44;-1.30;90.60
35381;DHT22;21486;51.916;8.378;2023-02-26T05:42:09;-1.10;90.40
35381;DHT22;21486;51.916;8.378;2023-02-26T05:44:35;-1.10;90.10
35381;DHT22;21486;51.916;8.378;2023-02-26T05:47:01;-1.00;90.00
35381;DHT22;21486;51.916;8.378;2023-02-26T05:49:27;-1.00;89.80
35381;DHT22;21486;51.916;8.378;2023-02-26T05:51:52;-1.10;90.30
35381;DHT22;21486;51.916;8.378;2023-02-26T05:54:18;-1.30;90.40
35381;DHT22;21486;51.916;8.378;2023-02-26T05:56:44;-1.20;90.40
35381;DHT22;21486;51.916;8.378;2023-02-26T05:59:09;-1.20;90.40
35381;DHT22;21486;51.916;8.378;2023-02-26T06:01:35;-1.20;90.50
35381;DHT22;21486;51.916;8.378;2023-02-26T06:04:05;-1.00;90.30
35381;DHT22;21486;51.916;8.378;2023-02-26T06:06:31;-1.00;90.00
35381;DHT22;21486;51.916;8.378;2023-02-26T06:08:57;-1.10;90.20
35381;DHT22;21486;51.916;8.378;2023-02-26T06:11:23;-1.10;90.30
35381;DHT22;21486;51.916;8.378;2023-02-26T06:13:48;-0.90;90.10
35381;DHT22;21486;51.916;8.378;2023-02-26T06:16:14;-1.00;89.40
35381;DHT22;21486;51.916;8.378;2023-02-26T06:18:40;-1.10;90.00
35381;DHT22;21486;51.916;8.378;2023-02-26T06:21:06;-1.10;90.20
35381;DHT22;21486;51.916;8.378;2023-02-26T06:23:31;-1.10;89.90
35381;DHT22;21486;51.916;8.378;2023-02-26T06:25:57;-1.00;89.70
35381;DHT22;21486;51.916;8.378;2023-02-26T06:28:24;-1.00;89.80
35381;DHT22;21486;51.916;8.378;2023-02-26T06:30:51;-0.90;89.40
35381;DHT22;21486;51.916;8.378;2023-02-26T06:33:17;-1.00;89.00
35381;DHT22;21486;51.916;8.378;2023-02-26T06:35:42;-0.90;88.90
35381;DHT22;21486;51.916;8.378;2023-02-26T06:38:08;-0.90;89.10
35381;DHT22;21486;51.916;8.378;2023-02-26T06:40:33;-0.90;89.10
35381;DHT22;21486;51.916;8.378;2023-02-26T06:42:59;-0.80;88.70
35381;DHT22;21486;51.916;8.378;2023-02-26T06:45:24;-1.10;89.50
35381;DHT22;21486;51.916;8.378;2023-02-26T06:47:50;-0.90;89.70
35381;DHT22;21486;51.916;8.378;2023-02-26T06:50:16;-1.00;89.50
35381;DHT22;21486;51.916;8.378;2023-02-26T06:52:42;-1.00;89.20
35381;DHT22;21486;51.916;8.378;2023-02-26T06:55:08;-1.00;90.00
35381;DHT22;21486;51.916;8.378;2023-02-26T06:57:34;-1.30;90.50
35381;DHT22;21486;51.916;8.378;2023-02-26T06:59:59;-1.30;90.60
35381;DHT22;21486;51.916;8.378;2023-02-26T07:02:25;-1.20;90.60
35381;DHT22;21486;51.916;8.378;2023-02-26T07:04:51;-1.10;90.30
35381;DHT22;21486;51.916;8.378;2023-02-26T07:07:17;-0.90;89.90
35381;DHT22;21486;51.916;8.378;2023-02-26T07:09:42;-0.90;89.40
35381;DHT22;21486;51.916;8.378;2023-02-26T07:12:08;-0.80;88.80
35381;DHT22;21486;51.916;8.378;2023-02-26T07:14:34;-0.80;89.00
35381;DHT22;21486;51.916;8.378;2023-02-26T07:17:00;-0.80;89.10
35381;DHT22;21486;51.916;8.378;2023-02-26T07:19:26;-0.70;88.70
35381;DHT22;21486;51.916;8.378;2023-02-26T07:21:52;-0.80;88.60
35381;DHT22;21486;51.916;8.378;2023-02-26T07:24:19;-0.80;89.10
35381;DHT22;21486;51.916;8.378;2023-02-26T07:26:45;-0.70;89.10
35381;DHT22;21486;51.916;8.378;2023-02-26T07:29:10;-0.60;88.40
35381;DHT22;21486;51.916;8.378;2023-02-26T07:31:36;-0.60;88.40
35381;DHT22;21486;51.916;8.378;2023-02-26T07:34:02;-0.60;87.90
35381;DHT22;21486;51.916;8.378;2023-02-26T07:36:27;-0.50;88.20
35381;DHT22;21486;51.916;8.378;2023-02-26T07:38:53;-0.40;87.40
35381;DHT22;21486;51.916;8.378;2023-02-26T07:41:19;-0.50;87.70
35381;DHT22;21486;51.916;8.378;2023-02-26T07:43:44;-0.40;88.20
35381;DHT22;21486;51.916;8.378;2023-02-26T07:46:11;-0.30;87.80
35381;DHT22;21486;51.916;8.378;2023-02-26T07:48:36;-0.30;87.60
35381;DHT22;21486;51.916;8.378;2023-02-26T07:51:02;-0.20;86.90
35381;DHT22;21486;51.916;8.378;2023-02-26T07:53:28;-0.30;86.70
35381;DHT22;21486;51.916;8.378;2023-02-26T07:55:53;-0.20;86.70
35381;DHT22;21486;51.916;8.378;2023-02-26T07:58:19;-0.20;86.80
35381;DHT22;21486;51.916;8.378;2023-02-26T08:00:44;-0.10;86.40
35381;DHT22;21486;51.916;8.378;2023-02-26T08:03:10;-0.10;86.40
35381;DHT22;21486;51.916;8.378;2023-02-26T08:05:35;-0.10;85.80
35381;DHT22;21486;51.916;8.378;2023-02-26T08:08:01;-0.10;85.70
35381;DHT22;21486;51.916;8.378;2023-02-26T08:10:28;0.00;86.20
35381;DHT22;21486;51.916;8.378;2023-02-26T08:12:53;0.10;85.40
35381;DHT22;21486;51.916;8.378;2023-02-26T08:15:19;0.00;85.20
35381;DHT22;21486;51.916;8.378;2023-02-26T08:17:45;0.10;85.00
35381;DHT22;21486;51.916;8.378;2023-02-26T08:20:12;0.30;84.70
35381;DHT22;21486;51.916;8.378;2023-02-26T08:22:39;0.30;83.70
35381;DHT22;21486;51.916;8.378;2023-02-26T08:25:05;0.40;85.70
35381;DHT22;21486;51.916;8.378;2023-02-26T08:27:32;0.50;83.30
35381;DHT22;21486;51.916;8.378;2023-02-26T08:29:57;0.60;82.00
35381;DHT22;21486;51.916;8.378;2023-02-26T08:32:23;0.70;82.50
35381;DHT22;21486;51.916;8.378;2023-02-26T08:34:51;0.70;82.00
35381;DHT22;21486;51.916;8.378;2023-02-26T08:37:17;0.70;80.50
35381;DHT22;21486;51.916;8.378;2023-02-26T08:39:42;0.70;80.30
35381;DHT22;21486;51.916;8.378;2023-02-26T08:42:08;0.70;80.50
35381;DHT22;21486;51.916;8.378;2023-02-26T08:44:34;0.70;81.30
35381;DHT22;21486;51.916;8.378;2023-02-26T08:47:00;0.80;79.90
35381;DHT22;21486;51.916;8.378;2023-02-26T08:49:26;1.00;79.60
35381;DHT22;21486;51.916;8.378;2023-02-26T08:51:51;1.10;78.20
35381;DHT22;21486;51.916;8.378;2023-02-26T08:54:20;1.20;77.80
35381;DHT22;21486;51.916;8.378;2023-02-26T08:56:49;1.30;77.80
35381;DHT22;21486;51.916;8.378;2023-02-26T08:59:15;1.40;77.20
35381;DHT22;21486;51.916;8.378;2023-02-26T09:01:40;1.60;75.00
35381;DHT22;21486;51.916;8.378;2023-02-26T09:04:06;1.70;74.70
35381;DHT22;21486;51.916;8.378;2023-02-26T09:06:40;1.90;73.50
35381;DHT22;21486;51.916;8.378;2023-02-26T09:09:06;2.30;73.80
35381;DHT22;21486;51.916;8.378;2023-02-26T09:11:33;3.00;71.40
35381;DHT22;21486;51.916;8.378;2023-02-26T09:14:07;3.40;69.80
35381;DHT22;21486;51.916;8.378;2023-02-26T09:16:34;3.90;68.30
35381;DHT22;21486;51.916;8.378;2023-02-26T09:19:01;4.70;65.80
35381;DHT22;21486;51.916;8.378;2023-02-26T09:21:27;5.10;64.40
35381;DHT22;21486;51.916;8.378;2023-02-26T09:23:52;5.70;60.80
35381;DHT22;21486;51.916;8.378;2023-02-26T09:26:18;5.70;60.70
35381;DHT22;21486;51.916;8.378;2023-02-26T09:28:43;6.20;59.40
35381;DHT22;21486;51.916;8.378;2023-02-26T09:31:09;6.60;56.90
35381;DHT22;21486;51.916;8.378;2023-02-26T09:33:34;6.10;56.80
35381;DHT22;21486;51.916;8.378;2023-02-26T09:36:00;6.40;57.60
35381;DHT22;21486;51.916;8.378;2023-02-26T09:38:26;6.50;54.20
35381;DHT22;21486;51.916;8.378;2023-02-26T09:51:29;6.20;53.10
35381;DHT22;21486;51.916;8.378;2023-02-26T09:53:56;6.50;52.00
35381;DHT22;21486;51.916;8.378;2023-02-26T09:56:25;5.90;52.10
35381;DHT22;21486;51.916;8.378;2023-02-26T09:58:52;5.70;54.70
35381;DHT22;21486;51.916;8.378;2023-02-26T10:01:26;6.00;53.10
35381;DHT22;21486;51.916;8.378;2023-02-26T10:06:34;6.00;53.00
35381;DHT22;21486;51.916;8.378;2023-02-26T10:09:33;6.50;51.20
35381;DHT22;21486;51.916;8.378;2023-02-26T10:12:17;6.20;51.80
35381;DHT22;21486;51.916;8.378;2023-02-26T10:15:09;7.10;49.20
35381;DHT22;21486;51.916;8.378;2023-02-26T10:34:24;7.60;46.40
35381;DHT22;21486;51.916;8.378;2023-02-26T10:40:22;7.60;46.90
35381;DHT22;21486;51.916;8.378;2023-02-26T10:43:16;8.00;46.00
35381;DHT22;21486;51.916;8.378;2023-02-26T10:50:56;8.50;44.30
35381;DHT22;21486;51.916;8.378;2023-02-26T10:53:23;7.80;43.20
35381;DHT22;21486;51.916;8.378;2023-02-26T10:56:02;7.70;45.40
35381;DHT22;21486;51.916;8.378;2023-02-26T10:58:29;7.70;44.80
35381;DHT22;21486;51.916;8.378;2023-02-26T11:00:55;7.70;42.80
35381;DHT22;21486;51.916;8.378;2023-02-26T11:03:25;7.60;43.90
35381;DHT22;21486;51.916;8.378;2023-02-26T11:05:52;7.40;44.60
35381;DHT22;21486;51.916;8.378;2023-02-26T11:08:25;8.00;45.00
35381;DHT22;21486;51.916;8.378;2023-02-26T11:10:53;8.50;43.00
35381;DHT22;21486;51.916;8.378;2023-02-26T11:13:21;8.60;43.20
35381;DHT22;21486;51.916;8.378;2023-02-26T11:15:49;8.80;43.40
35381;DHT22;21486;51.916;8.378;2023-02-26T11:18:21;8.80;42.00
35381;DHT22;21486;51.916;8.378;2023-02-26T11:20:48;8.70;42.20
35381;DHT22;21486;51.916;8.378;2023-02-26T11:23:17;9.00;41.90
35381;DHT22;21486;51.916;8.378;2023-02-26T11:25:45;8.80;43.20
35381;DHT22;21486;51.916;8.378;2023-02-26T11:28:32;8.80;42.90
35381;DHT22;21486;51.916;8.378;2023-02-26T11:31:01;8.30;42.20
35381;DHT22;21486;51.916;8.378;2023-02-26T11:33:37;8.40;43.70
35381;DHT22;21486;51.916;8.378;2023-02-26T11:36:08;8.90;42.40
35381;DHT22;21486;51.916;8.378;2023-02-26T11:38:35;8.80;40.70
35381;DHT22;21486;51.916;8.378;2023-02-26T11:41:01;8.50;42.10
35381;DHT22;21486;51.916;8.378;2023-02-26T11:43:35;8.50;42.00
35381;DHT22;21486;51.916;8.378;2023-02-26T11:46:02;8.40;42.90
35381;DHT22;21486;51.916;8.378;2023-02-26T11:48:42;8.70;42.60
35381;DHT22;21486;51.916;8.378;2023-02-26T11:51:16;8.50;42.60
35381;DHT22;21486;51.916;8.378;2023-02-26T11:53:55;8.40;42.70
35381;DHT22;21486;51.916;8.378;2023-02-26T11:56:41;8.10;43.70
35381;DHT22;21486;51.916;8.378;2023-02-26T11:59:16;8.00;43.80
35381;DHT22;21486;51.916;8.378;2023-02-26T12:01:42;8.20;43.90
35381;DHT22;21486;51.916;8.378;2023-02-26T12:04:11;8.70;43.40
35381;DHT22;21486;51.916;8.378;2023-02-26T12:06:37;8.70;42.70
35381;DHT22;21486;51.916;8.378;2023-02-26T12:09:03;8.50;44.50
35381;DHT22;21486;51.916;8.378;2023-02-26T12:12:22;8.20;45.20
35381;DHT22;21486;51.916;8.378;2023-02-26T12:23:49;5.80;48.90
35381;DHT22;21486;51.916;8.378;2023-02-26T12:35:25;4.90;51.60
35381;DHT22;21486;51.916;8.378;2023-02-26T12:38:18;4.80;51.90
35381;DHT22;21486;51.916;8.378;2023-02-26T12:43:50;4.90;52.60
35381;DHT22;21486;51.916;8.378;2023-02-26T12:46:41;4.80;53.50
35381;DHT22;21486;51.916;8.378;2023-02-26T12:49:38;4.70;51.90
35381;DHT22;21486;51.916;8.378;2023-02-26T12:52:46;4.30;54.20
35381;DHT22;21486;51.916;8.378;2023-02-26T12:55:46;4.30;53.20
35381;DHT22;21486;51.916;8.378;2023-02-26T13:07:10;4.30;54.00
35381;DHT22;21486;51.916;8.378;2023-02-26T13:10:02;4.20;51.30
35381;DHT22;21486;51.916;8.378;2023-02-26T13:21:31;5.30;52.30
35381;DHT22;21486;51.916;8.378;2023-02-26T13:26:53;5.60;51.70
35381;DHT22;21486;51.916;8.378;2023-02-26T13:29:27;5.00;53.40
35381;DHT22;21486;51.916;8.378;2023-02-26T13:32:25;4.70;54.30
35381;DHT22;21486;51.916;8.378;2023-02-26T13:34:59;5.00;53.60
35381;DHT22;21486;51.916;8.378;2023-02-26T13:37:37;5.60;52.20
35381;DHT22;21486;51.916;8.378;2023-02-26T13:43:22;6.40;49.30
35381;DHT22;21486;51.916;8.378;2023-02-26T13:49:28;6.70;47.40
35381;DHT22;21486;51.916;8.378;2023-02-26T13:51:56;6.50;47.30
35381;DHT22;21486;51.916;8.378;2023-02-26T13:57:07;5.90;48.40
35381;DHT22;21486;51.916;8.378;2023-02-26T13:59:47;5.60;49.30
35381;DHT22;21486;51.916;8.378;2023-02-26T14:04:52;5.40;50.50
35381;DHT22;21486;51.916;8.378;2023-02-26T14:10:49;5.00;52.20
35381;DHT22;21486;51.916;8.378;2023-02-26T14:13:20;5.00;52.70
35381;DHT22;21486;51.916;8.378;2023-02-26T14:24:18;4.70;53.40
35381;DHT22;21486;51.916;8.378;2023-02-26T14:26:50;4.60;53.40
35381;DHT22;21486;51.916;8.378;2023-02-26T14:32:45;4.70;53.50
35381;DHT22;21486;51.916;8.378;2023-02-26T14:35:17;4.80;53.40
35381;DHT22;21486;51.916;8.378;2023-02-26T14:37:49;4.60;51.60
35381;DHT22;21486;51.916;8.378;2023-02-26T14:40:20;4.40;52.60
35381;DHT22;21486;51.916;8.378;2023-02-26T14:42:56;4.20;51.80
35381;DHT22;21486;51.916;8.378;2023-02-26T14:47:48;4.20;52.90
35381;DHT22;21486;51.916;8.378;2023-02-26T14:50:16;4.20;53.10
35381;DHT22;21486;51.916;8.378;2023-02-26T14:53:12;4.30;53.60
35381;DHT22;21486;51.916;8.378;2023-02-26T14:55:53;4.20;52.80
35381;DHT22;21486;51.916;8.378;2023-02-26T14:58:54;4.10;53.50
35381;DHT22;21486;51.916;8.378;2023-02-26T15:04:22;4.10;54.10
35381;DHT22;21486;51.916;8.378;2023-02-26T15:13:05;4.20;52.30
35381;DHT22;21486;51.916;8.378;2023-02-26T15:21:29;4.20;52.10
35381;DHT22;21486;51.916;8.378;2023-02-26T15:23:58;4.20;51.40
35381;DHT22;21486;51.916;8.378;2023-02-26T15:26:25;4.40;52.10
35381;DHT22;21486;51.916;8.378;2023-02-26T15:28:52;4.20;51.00
35381;DHT22;21486;51.916;8.378;2023-02-26T15:31:20;4.20;51.50
35381;DHT22;21486;51.916;8.378;2023-02-26T15:33:54;4.30;52.40
35381;DHT22;21486;51.916;8.378;2023-02-26T15:36:20;4.30;52.10
35381;DHT22;21486;51.916;8.378;2023-02-26T15:38:53;4.20;51.50
35381;DHT22;21486;51.916;8.378;2023-02-26T15:41:19;4.20;51.90
35381;DHT22;21486;51.916;8.378;2023-02-26T15:43:50;4.20;51.40
35381;DHT22;21486;51.916;8.378;2023-02-26T15:46:25;4.20;52.50
35381;DHT22;21486;51.916;8.378;2023-02-26T15:48:51;4.40;52.50
35381;DHT22;21486;51.916;8.378;2023-02-26T15:51:19;4.40;52.70
35381;DHT22;21486;51.916;8.378;2023-02-26T15:53:50;4.30;52.90
35381;DHT22;21486;51.916;8.378;2023-02-26T15:56:27;4.20;52.20
35381;DHT22;21486;51.916;8.378;2023-02-26T15:58:58;4.30;52.80
35381;DHT22;21486;51.916;8.378;2023-02-26T16:01:26;4.20;52.40
35381;DHT22;21486;51.916;8.378;2023-02-26T16:03:57;4.20;53.10
35381;DHT22;21486;51.916;8.378;2023-02-26T16:06:27;4.10;53.00
35381;DHT22;21486;51.916;8.378;2023-02-26T16:08:52;3.90;54.00
35381;DHT22;21486;51.916;8.378;2023-02-26T16:11:19;3.90;54.10
35381;DHT22;21486;51.916;8.378;2023-02-26T16:13:48;3.90;54.60
35381;DHT22;21486;51.916;8.378;2023-02-26T16:16:26;3.80;54.50
35381;DHT22;21486;51.916;8.378;2023-02-26T16:18:54;3.70;54.90
35381;DHT22;21486;51.916;8.378;2023-02-26T16:21:30;3.70;54.40
35381;DHT22;21486;51.916;8.378;2023-02-26T16:23:58;3.70;54.60
35381;DHT22;21486;51.916;8.378;2023-02-26T16:26:34;3.70;55.70
35381;DHT22;21486;51.916;8.378;2023-02-26T16:29:06;3.70;55.60
35381;DHT22;21486;51.916;8.378;2023-02-26T16:31:32;3.70;55.60
35381;DHT22;21486;51.916;8.378;2023-02-26T16:34:00;3.80;55.70
35381;DHT22;21486;51.916;8.378;2023-02-26T16:36:31;3.80;57.20
35381;DHT22;21486;51.916;8.378;2023-02-26T16:41:33;3.90;57.50
35381;DHT22;21486;51.916;8.378;2023-02-26T16:44:02;3.80;57.60
35381;DHT22;21486;51.916;8.378;2023-02-26T16:46:45;3.70;58.30
35381;DHT22;21486;51.916;8.378;2023-02-26T16:49:24;3.80;58.40
35381;DHT22;21486;51.916;8.378;2023-02-26T16:51:51;3.50;57.70
35381;DHT22;21486;51.916;8.378;2023-02-26T16:54:27;3.40;59.20
35381;DHT22;21486;51.916;8.378;2023-02-26T16:57:17;3.40;58.80
35381;DHT22;21486;51.916;8.378;2023-02-26T16:59:57;3.50;59.00
35381;DHT22;21486;51.916;8.378;2023-02-26T17:02:26;3.40;59.80
35381;DHT22;21486;51.916;8.378;2023-02-26T17:04:58;3.50;59.80
35381;DHT22;21486;51.916;8.378;2023-02-26T17:07:35;3.50;59.70
35381;DHT22;21486;51.916;8.378;2023-02-26T17:10:08;3.40;60.10
35381;DHT22;21486;51.916;8.378;2023-02-26T17:12:53;3.40;61.30
35381;DHT22;21486;51.916;8.378;2023-02-26T17:15:29;3.40;61.00
35381;DHT22;21486;51.916;8.378;2023-02-26T17:17:55;3.40;61.50
35381;DHT22;21486;51.916;8.378;2023-02-26T17:20:23;3.30;61.50
35381;DHT22;21486;51.916;8.378;2023-02-26T17:22:49;3.30;61.40
35381;DHT22;21486;51.916;8.378;2023-02-26T17:25:16;3.30;61.20
35381;DHT22;21486;51.916;8.378;2023-02-26T17:27:43;3.30;61.40
35381;DHT22;21486;51.916;8.378;2023-02-26T17:30:12;3.30;61.60
35381;DHT22;21486;51.916;8.378;2023-02-26T17:32:40;3.30;61.80
35381;DHT22;21486;51.916;8.378;2023-02-26T17:35:06;3.30;61.60
35381;DHT22;21486;51.916;8.378;2023-02-26T17:37:33;3.30;61.40
35381;DHT22;21486;51.916;8.378;2023-02-26T17:40:00;3.40;61.20
35381;DHT22;21486;51.916;8.378;2023-02-26T17:42:26;3.40;61.40
35381;DHT22;21486;51.916;8.378;2023-02-26T17:44:52;3.40;61.60
35381;DHT22;21486;51.916;8.378;2023-02-26T17:47:21;3.40;62.90
35381;DHT22;21486;51.916;8.378;2023-02-26T17:49:47;3.40;62.20
35381;DHT22;21486;51.916;8.378;2023-02-26T17:52:14;3.30;61.60
35381;DHT22;21486;51.916;8.378;2023-02-26T17:54:39;3.30;61.70
35381;DHT22;21486;51.916;8.378;2023-02-26T17:57:06;3.40;62.30
35381;DHT22;21486;51.916;8.378;2023-02-26T17:59:32;3.30;62.90
35381;DHT22;21486;51.916;8.378;2023-02-26T18:01:58;3.30;62.60
35381;DHT22;21486;51.916;8.378;2023-02-26T18:04:24;3.40;62.60
35381;DHT22;21486;51.916;8.378;2023-02-26T18:06:50;3.40;62.90
35381;DHT22;21486;51.916;8.378;2023-02-26T18:09:16;3.30;61.90
35381;DHT22;21486;51.916;8.378;2023-02-26T18:11:42;3.30;62.80
35381;DHT22;21486;51.916;8.378;2023-02-26T18:14:08;3.20;63.70
35381;DHT22;21486;51.916;8.378;2023-02-26T18:16:36;3.20;63.60
35381;DHT22;21486;51.916;8.378;2023-02-26T18:19:03;3.20;64.00
35381;DHT22;21486;51.916;8.378;2023-02-26T18:21:30;3.20;63.40
35381;DHT22;21486;51.916;8.378;2023-02-26T18:23:55;3.10;63.10
35381;DHT22;21486;51.916;8.378;2023-02-26T18:26:23;3.00;64.00
35381;DHT22;21486;51.916;8.378;2023-02-26T18:28:52;2.80;65.20
35381;DHT22;21486;51.916;8.378;2023-02-26T18:31:19;2.90;64.90
35381;DHT22;21486;51.916;8.378;2023-02-26T18:33:45;2.90;64.00
35381;DHT22;21486;51.916;8.378;2023-02-26T18:36:19;2.90;64.10
35381;DHT22;21486;51.916;8.378;2023-02-26T18:38:47;2.90;64.90
35381;DHT22;21486;51.916;8.378;2023-02-26T18:41:12;2.70;64.80
35381;DHT22;21486;51.916;8.378;2023-02-26T18:43:38;2.60;66.10